Time;durP1;ratioP1;P1;durP2;ratioP2;P2;SDS_P1;SDS_P2;PMS_P1;PMS_P2;Temp;Humidity;BMP_temperature;BMP_pressure;BME280_temperature;BME280_humidity;BME280_pressure;Samples;Min_cycle;Max_cycle;Signal;HPM_P1;HPM_P2
2023/10/07 00:01:01;;;;;;;2.33;1.97;;;23.00;70.10;;;24.05;49.71;101550.13;3081030;46;20423;-81
2023/10/07 00:03:29;;;;;;;1.93;1.70;;;23.00;70.10;;;24.04;49.64;101556.53;3080150;46;20434;-82
2023/10/07 00:06:01;;;;;;;3.27;1.93;;;23.00;70.10;;;24.03;49.39;101562.97;3081437;46;20497;-81
2023/10/07 00:08:31;;;;;;;2.87;1.90;;;23.00;70.10;;;24.03;49.87;101557.59;3081369;46;20430;-81
2023/10/07 00:11:00;;;;;;;3.00;2.23;;;23.00;70.10;;;24.02;49.57;101555.97;3080675;46;20459;-81
2023/10/07 00:13:31;;;;;;;3.03;1.50;;;23.00;70.10;;;24.02;49.97;101547.91;3080415;46;20423;-81
2023/10/07 00:16:00;;;;;;;1.63;1.53;;;23.00;70.10;;;24.02;49.46;101553.28;3080818;46;20426;-81
2023/10/07 00:18:30;;;;;;;3.07;2.23;;;23.00;70.20;;;24.02;49.69;101555.97;3080916;46;21011;-81
2023/10/07 00:20:59;;;;;;;2.03;1.83;;;23.00;70.20;;;24.01;49.44;101548.94;3081513;46;20455;-81
2023/10/07 00:23:28;;;;;;;2.40;1.70;;;23.00;70.20;;;24.01;49.86;101542.78;3080541;46;20447;-82
2023/10/07 00:25:58;;;;;;;1.83;1.60;;;23.00;70.20;;;24.00;49.54;101550.03;3080984;46;21191;-81
2023/10/07 00:28:35;;;;;;;2.37;1.87;;;23.00;70.20;;;24.00;49.53;101546.50;3081074;46;20427;-81
2023/10/07 00:31:12;;;;;;;2.00;1.80;;;23.00;70.30;;;23.98;49.49;101554.84;3081173;46;20549;-81
2023/10/07 00:34:02;;;;;;;1.97;1.80;;;23.00;70.30;;;23.98;49.77;101552.16;3080389;46;20452;-81
2023/10/07 00:39:07;;;;;;;1.87;1.67;;;23.00;70.30;;;23.97;49.61;101558.56;3080817;46;20467;-81
2023/10/07 00:41:45;;;;;;;2.53;1.77;;;23.00;70.30;;;23.97;49.80;101553.19;3079143;46;20427;-82
2023/10/07 00:44:18;;;;;;;2.83;1.53;;;22.90;70.20;;;23.96;49.92;101545.38;3080851;46;20435;-81
2023/10/07 00:46:55;;;;;;;3.07;1.97;;;22.90;70.20;;;23.96;49.90;101554.25;3080287;46;20560;-81
2023/10/07 00:49:27;;;;;;;1.50;1.40;;;22.90;70.20;;;23.96;49.49;101556.13;3078936;46;21026;-81
2023/10/07 00:52:03;;;;;;;2.50;1.73;;;22.90;70.30;;;23.95;50.11;101549.13;3079814;46;20447;-81
2023/10/07 00:54:50;;;;;;;2.77;1.80;;;22.90;70.20;;;23.94;50.05;101556.34;3080644;46;20444;-81
2023/10/07 00:57:34;;;;;;;2.47;1.83;;;22.90;70.30;;;23.94;49.45;101553.66;3080719;46;20836;-81
2023/10/07 01:02:52;;;;;;;2.00;1.80;;;22.90;70.20;;;23.93;49.94;101557.44;3079600;46;20427;-81
2023/10/07 01:05:27;;;;;;;2.17;1.67;;;22.90;70.20;;;23.92;49.70;101545.03;3080452;46;20533;-81
2023/10/07 01:07:55;;;;;;;2.13;1.83;;;22.90;70.30;;;23.93;49.73;101551.22;3079868;46;21022;-81
2023/10/07 01:10:28;;;;;;;1.97;1.70;;;22.90;70.30;;;23.93;49.90;101551.22;3080095;46;20448;-81
2023/10/07 01:13:00;;;;;;;3.03;1.97;;;22.90;70.30;;;23.92;49.47;101555.78;3079488;46;20435;-80
2023/10/07 01:15:30;;;;;;;2.57;1.90;;;22.90;70.30;;;23.92;49.92;101553.09;3079363;46;20423;-82
2023/10/07 01:18:05;;;;;;;2.20;1.60;;;22.90;70.30;;;23.93;49.98;101556.63;3080650;46;20436;-81
2023/10/07 01:20:35;;;;;;;2.40;1.60;;;22.90;70.30;;;23.91;49.56;101556.88;3079710;46;21027;-82
2023/10/07 01:23:07;;;;;;;2.07;1.87;;;22.90;70.40;;;23.91;49.96;101553.34;3080647;46;20495;-81
2023/10/07 01:25:42;;;;;;;2.07;1.70;;;22.90;70.40;;;23.91;49.44;101559.56;3080409;46;20423;-81
2023/10/07 01:28:14;;;;;;;1.57;1.23;;;22.90;70.40;;;23.90;49.53;101555.22;3080529;46;20500;-81
2023/10/07 01:31:07;;;;;;;2.40;2.00;;;22.90;70.40;;;23.89;49.71;101550.88;3079617;46;20459;-81
2023/10/07 01:33:45;;;;;;;2.80;1.80;;;22.90;70.40;;;23.88;49.92;101543.91;3080052;46;20489;-81
2023/10/07 01:36:19;;;;;;;1.83;1.50;;;22.90;70.40;;;23.87;49.81;101550.31;3080298;46;21147;-82
2023/10/07 01:38:54;;;;;;;1.93;1.77;;;22.90;70.40;;;23.89;49.66;101542.03;3079261;46;20553;-81
2023/10/07 01:41:27;;;;;;;1.97;1.53;;;22.90;70.40;;;23.89;49.63;101555.47;3079505;46;21100;-81
2023/10/07 01:44:05;;;;;;;2.47;1.80;;;22.90;70.40;;;23.87;49.92;101555.69;3079317;46;20427;-81
2023/10/07 01:46:35;;;;;;;2.13;1.87;;;22.90;70.40;;;23.88;50.18;101545.75;3080018;46;20423;-81
2023/10/07 01:49:06;;;;;;;2.10;1.80;;;22.90;70.50;;;23.87;50.11;101550.31;3079255;46;20446;-81
2023/10/07 01:51:36;;;;;;;2.13;1.40;;;22.90;70.50;;;23.87;49.71;101547.63;3078946;46;20448;-81
2023/10/07 01:54:08;;;;;;;2.57;1.40;;;22.90;70.50;;;23.87;49.77;101542.25;3079862;46;20439;-82
2023/10/07 01:56:38;;;;;;;1.93;1.73;;;22.90;70.60;;;23.86;49.84;101535.25;3080011;46;20468;-81
2023/10/07 02:01:51;;;;;;;1.97;1.77;;;22.90;71.40;;;23.86;49.80;101529.88;3080028;46;20461;-81
2023/10/07 02:04:26;;;;;;;1.97;1.60;;;22.90;71.40;;;23.84;49.77;101526.63;3078901;46;20451;-81
2023/10/07 02:06:56;;;;;;;2.90;1.60;;;22.80;70.50;;;23.84;49.80;101529.31;3079596;46;21033;-81
2023/10/07 02:09:27;;;;;;;1.60;1.30;;;22.90;70.60;;;23.86;49.96;101529.88;3079501;46;21169;-81
2023/10/07 02:12:08;;;;;;;1.83;1.43;;;22.90;70.70;;;23.84;50.39;101534.69;3079306;46;21092;-82
2023/10/07 02:14:37;;;;;;;1.47;1.33;;;22.90;70.70;;;23.85;50.35;101527.41;3079078;46;20435;-81
2023/10/07 02:17:14;;;;;;;1.37;1.27;;;22.80;70.60;;;23.83;50.04;101524.97;3079352;46;20557;-80
2023/10/07 02:19:43;;;;;;;2.27;1.63;;;22.80;70.60;;;23.82;50.09;101526.03;3078878;46;20473;-81
2023/10/07 02:22:22;;;;;;;2.10;1.73;;;22.80;70.60;;;23.82;50.12;101528.72;3079698;46;21044;-81
2023/10/07 02:25:02;;;;;;;1.60;1.50;;;22.90;70.70;;;23.82;50.49;101517.16;3079197;46;20423;-81
2023/10/07 02:27:38;;;;;;;2.00;1.80;;;22.80;70.60;;;23.82;50.46;101517.16;3079687;46;21120;-81
2023/10/07 02:30:16;;;;;;;1.53;1.17;;;22.80;70.60;;;23.82;50.46;101522.53;3079146;46;20438;-81
2023/10/07 02:32:46;;;;;;;1.73;1.60;;;22.80;70.60;;;23.81;50.29;101510.97;3079886;46;20433;-81
2023/10/07 02:35:21;;;;;;;1.53;1.43;;;22.80;70.60;;;23.81;49.94;101516.34;3080066;46;20568;-81
2023/10/07 02:37:49;;;;;;;1.73;1.50;;;22.80;70.60;;;23.80;50.16;101512.00;3079592;46;20460;-81
2023/10/07 02:40:21;;;;;;;1.77;1.67;;;22.80;70.60;;;23.80;50.32;101513.88;3079374;46;20485;-81
2023/10/07 02:42:51;;;;;;;2.07;1.63;;;22.80;70.60;;;23.78;50.34;101506.06;3079576;46;20423;-81
2023/10/07 02:45:28;;;;;;;1.67;1.43;;;22.80;70.70;;;23.78;49.93;101519.50;3078952;46;20423;-81
2023/10/07 02:48:01;;;;;;;3.10;1.70;;;22.80;70.70;;;23.78;50.34;101522.19;3079407;46;20516;-81
2023/10/07 02:50:31;;;;;;;2.20;1.87;;;22.80;70.80;;;23.77;50.24;101520.56;3079209;46;20588;-81
2023/10/07 02:53:02;;;;;;;1.83;1.63;;;22.80;70.70;;;23.78;50.15;101526.75;3079074;46;20481;-81
2023/10/07 02:55:45;;;;;;;2.37;1.57;;;22.80;70.70;;;23.77;50.07;101523.25;3079524;46;20435;-81
2023/10/07 02:58:27;;;;;;;1.87;1.60;;;22.80;70.70;;;23.77;50.22;101525.13;3079580;46;20431;-81
2023/10/07 03:01:10;;;;;;;2.37;1.60;;;22.80;70.80;;;23.77;49.95;101525.13;3078965;46;20427;-81
2023/10/07 03:03:41;;;;;;;1.50;1.40;;;22.80;70.80;;;23.76;50.45;101518.94;3078543;46;20967;-81
2023/10/07 03:06:09;;;;;;;2.43;1.80;;;22.80;70.70;;;23.75;50.39;101522.66;3079109;46;20423;-81
2023/10/07 03:08:41;;;;;;;1.90;1.80;;;22.80;70.80;;;23.75;50.38;101519.97;3078965;46;20427;-81
2023/10/07 03:11:20;;;;;;;1.40;1.20;;;22.80;70.80;;;23.76;50.18;101518.94;3079231;46;20423;-81
2023/10/07 03:13:57;;;;;;;1.67;1.40;;;22.80;70.80;;;23.75;50.40;101529.94;3078514;46;20557;-81
2023/10/07 03:24:10;;;;;;;1.90;1.30;;;22.80;70.80;;;23.73;50.46;101516.72;3078470;46;20438;-81
2023/10/07 03:26:45;;;;;;;1.70;1.50;;;22.80;70.80;;;23.72;50.27;101515.09;3079399;46;20435;-81
2023/10/07 03:29:30;;;;;;;2.43;1.80;;;22.80;70.90;;;23.73;50.25;101518.59;3078011;46;20439;-81
2023/10/07 03:32:05;;;;;;;2.27;1.83;;;22.80;70.80;;;23.72;50.47;101511.59;3078786;46;20427;-81
2023/10/07 03:34:36;;;;;;;2.10;1.43;;;22.80;71.60;;;23.71;50.73;101516.16;3079187;46;20423;-81
2023/10/07 03:42:33;;;;;;;1.87;1.47;;;22.70;70.70;;;23.69;50.04;101512.06;3078502;46;20427;-81
2023/10/07 03:45:03;;;;;;;1.70;1.33;;;22.80;70.80;;;23.70;50.21;101527.94;3078660;46;20434;-81
2023/10/07 03:47:32;;;;;;;1.70;1.50;;;22.70;70.70;;;23.70;50.35;101524.47;3078779;46;20553;-81
2023/10/07 03:50:20;;;;;;;1.73;1.57;;;22.70;70.70;;;23.69;50.31;101517.44;3078604;46;20446;-81
2023/10/07 03:52:50;;;;;;;1.80;1.70;;;22.70;70.70;;;23.69;50.56;101520.97;3078655;46;20427;-81
2023/10/07 03:55:18;;;;;;;1.93;1.57;;;22.70;70.80;;;23.68;50.61;101522.00;3078719;46;20439;-81
2023/10/07 03:57:47;;;;;;;1.60;1.37;;;22.70;70.70;;;23.68;50.61;101513.16;3078401;46;20459;-81
2023/10/07 04:00:16;;;;;;;2.03;1.27;;;22.70;70.80;;;23.69;50.17;101528.22;3078285;46;20434;-81
2023/10/07 04:02:45;;;;;;;1.70;1.37;;;22.70;70.80;;;23.69;50.60;101533.59;3078944;46;20455;-81
2023/10/07 04:05:14;;;;;;;1.90;1.43;;;22.70;70.80;;;23.68;50.18;101527.38;3078494;46;20442;-81
2023/10/07 04:07:45;;;;;;;1.77;1.30;;;22.70;70.80;;;23.66;50.56;101529.50;3080176;46;20430;-81
2023/10/07 04:12:49;;;;;;;1.83;1.60;;;22.70;70.90;;;23.67;50.65;101530.31;3080806;46;20426;-81
2023/10/07 04:15:18;;;;;;;1.60;1.50;;;22.70;70.90;;;23.67;50.24;101525.78;3080570;46;20427;-81
2023/10/07 04:17:46;;;;;;;2.60;1.53;;;22.70;70.90;;;23.66;50.66;101534.88;3080864;46;20444;-81
2023/10/07 04:20:18;;;;;;;1.60;1.50;;;22.70;70.90;;;23.66;50.43;101528.69;3080711;46;20515;-81
2023/10/07 04:22:57;;;;;;;1.70;1.50;;;22.70;70.90;;;23.66;50.35;101528.69;3080852;46;20426;-81
2023/10/07 04:25:27;;;;;;;1.90;1.40;;;22.70;71.00;;;23.64;50.84;101531.63;3080176;46;20476;-81
2023/10/07 04:27:57;;;;;;;1.80;1.40;;;22.70;70.90;;;23.64;50.44;101531.63;3080851;46;20459;-81
2023/10/07 04:30:28;;;;;;;2.13;1.60;;;22.70;70.90;;;23.65;50.59;101516.31;3080438;46;21097;-81
2023/10/07 04:33:01;;;;;;;2.63;1.63;;;22.70;70.90;;;23.65;50.56;101521.69;3080976;46;20423;-81
2023/10/07 04:35:32;;;;;;;1.47;1.37;;;22.70;70.90;;;23.65;50.64;101521.69;3080921;46;20423;-81
2023/10/07 04:38:25;;;;;;;1.77;1.40;;;22.70;71.00;;;23.64;50.49;101523.56;3080784;46;20522;-81
2023/10/07 04:46:23;;;;;;;1.53;1.43;;;22.70;70.90;;;23.62;50.91;101525.69;3080917;46;20583;-81
2023/10/07 04:48:55;;;;;;;1.93;1.20;;;22.70;70.90;;;23.63;50.60;101524.59;3080579;46;21137;-81
2023/10/07 04:54:02;;;;;;;1.53;1.40;;;22.70;71.00;;;23.63;50.77;101515.75;3080556;46;21019;-81
2023/10/07 04:56:33;;;;;;;2.37;1.30;;;22.70;71.00;;;23.63;50.69;101515.75;3080908;46;20426;-81
2023/10/07 04:59:05;;;;;;;1.53;1.43;;;22.70;71.00;;;23.62;50.62;101514.91;3079699;46;20435;-81
2023/10/07 05:01:34;;;;;;;2.20;1.77;;;22.70;71.00;;;23.62;50.42;101520.28;3080095;46;20557;-81
2023/10/07 05:04:09;;;;;;;1.47;1.30;;;22.70;71.00;;;23.61;50.33;101518.66;3079619;46;20427;-81
2023/10/07 05:06:40;;;;;;;1.90;1.37;;;22.70;71.00;;;23.61;50.45;101515.13;3080440;46;20464;-81
2023/10/07 05:09:09;;;;;;;1.73;1.50;;;22.70;71.00;;;23.61;50.43;101521.34;3080195;46;20435;-81
2023/10/07 05:11:43;;;;;;;1.37;1.27;;;22.70;71.00;;;23.61;50.70;101515.97;3079692;46;20427;-81
2023/10/07 05:14:17;;;;;;;1.57;1.47;;;22.60;70.90;;;23.61;50.43;101518.66;3079188;46;20444;-81
2023/10/07 05:16:46;;;;;;;1.90;1.50;;;22.60;70.90;;;23.61;50.77;101524.03;3079821;46;20427;-80
2023/10/07 05:19:22;;;;;;;2.10;1.40;;;22.60;70.90;;;23.62;50.46;101522.16;3079440;46;20435;-81
2023/10/07 05:22:14;;;;;;;1.47;1.33;;;22.70;71.10;;;23.61;50.39;101523.22;3079194;46;20456;-81
2023/10/07 05:24:46;;;;;;;2.70;1.57;;;22.70;71.00;;;23.61;50.59;101509.75;3079676;46;20533;-81
2023/10/07 05:27:15;;;;;;;1.97;1.40;;;22.70;71.00;;;23.60;50.45;101514.34;3080171;46;20560;-81
2023/10/07 05:29:45;;;;;;;1.60;1.50;;;22.60;70.90;;;23.61;50.51;101515.13;3080143;46;20435;-81
2023/10/07 05:32:14;;;;;;;1.60;1.50;;;22.60;70.90;;;23.61;50.66;101515.97;3080140;46;20493;-81
2023/10/07 05:34:45;;;;;;;2.00;1.80;;;22.60;70.90;;;23.60;50.49;101508.97;3080043;46;20471;-81
2023/10/07 05:37:15;;;;;;;1.67;1.57;;;22.60;71.00;;;23.60;50.52;101511.66;3080013;46;20423;-81
2023/10/07 05:39:44;;;;;;;2.03;1.53;;;22.60;70.90;;;23.59;50.63;101504.63;3079910;46;20463;-81
2023/10/07 05:42:12;;;;;;;1.97;1.50;;;22.70;71.10;;;23.59;50.69;101507.31;3080085;46;20455;-81
2023/10/07 05:44:41;;;;;;;1.60;1.30;;;22.60;71.00;;;23.60;50.39;101498.22;3080238;46;20447;-81
2023/10/07 05:47:09;;;;;;;1.60;1.50;;;22.60;71.00;;;23.59;50.90;101496.56;3079647;46;20976;-81
2023/10/07 05:49:38;;;;;;;2.13;1.23;;;22.60;71.00;;;23.58;50.51;101484.22;3079659;46;20439;-81
2023/10/07 05:52:07;;;;;;;1.60;1.50;;;22.60;71.00;;;23.59;50.63;101491.19;3079773;46;20442;-80
2023/10/07 05:54:35;;;;;;;3.50;1.50;;;22.60;71.10;;;23.58;50.90;101495.75;3079786;46;20426;-81
2023/10/07 05:57:05;;;;;;;1.87;1.40;;;22.60;71.10;;;23.58;50.43;101489.59;3080139;46;20591;-81
2023/10/07 05:59:33;;;;;;;1.57;1.47;;;22.60;71.10;;;23.58;50.68;101490.38;3079725;46;20455;-81
2023/10/07 06:02:05;;;;;;;2.13;1.50;;;22.60;71.10;;;23.58;50.83;101494.97;3079732;46;20427;-81
2023/10/07 06:04:35;;;;;;;1.40;1.30;;;22.60;71.10;;;23.58;50.80;101495.75;3079274;46;20508;-81
2023/10/07 06:07:06;;;;;;;1.50;1.40;;;22.60;71.10;;;23.58;50.80;101498.44;3079760;46;20427;-81
2023/10/07 06:09:36;;;;;;;1.50;1.40;;;22.60;71.10;;;23.58;50.64;101492.28;3079839;46;20435;-81
2023/10/07 06:12:07;;;;;;;1.70;1.50;;;22.60;71.10;;;23.58;50.47;101499.50;3078795;46;20951;-81
2023/10/07 06:14:38;;;;;;;2.17;1.80;;;22.60;71.10;;;23.58;50.58;101481.53;3079513;46;20922;-81
2023/10/07 06:17:07;;;;;;;1.67;1.43;;;22.60;71.10;;;23.58;50.52;101484.22;3079934;46;21091;-81
2023/10/07 06:19:36;;;;;;;4.43;1.93;;;22.60;71.10;;;23.58;50.66;101482.31;3079278;46;20446;-81
2023/10/07 06:22:15;;;;;;;2.80;1.80;;;22.60;71.20;;;23.58;50.50;101489.59;3079612;46;21064;-81
2023/10/07 06:24:44;;;;;;;3.40;1.73;;;22.60;71.20;;;23.57;50.95;101479.88;3079630;46;21145;-81
2023/10/07 06:27:13;;;;;;;4.07;2.10;;;22.60;71.30;;;23.56;51.14;101486.28;3079387;46;20553;-81
2023/10/07 06:29:45;;;;;;;3.43;1.80;;;22.60;71.40;;;23.55;50.72;101490.88;3078407;46;20439;-82
2023/10/07 06:32:23;;;;;;;4.50;2.10;;;22.60;71.60;;;23.55;50.96;101498.13;3078544;46;20491;-82
2023/10/07 06:34:55;;;;;;;2.97;1.80;;;22.60;71.70;;;23.54;51.06;101499.16;3080011;46;21006;-81
2023/10/07 06:37:29;;;;;;;3.10;2.10;;;22.60;71.80;;;23.55;50.71;101511.56;3079867;46;20435;-82
2023/10/07 06:39:58;;;;;;;3.00;1.87;;;22.60;71.90;;;23.55;50.87;101511.56;3078592;46;20463;-82
2023/10/07 06:42:27;;;;;;;6.47;2.47;;;22.60;71.90;;;23.55;51.20;101508.88;3079592;46;20436;-81
2023/10/07 06:44:55;;;;;;;4.13;2.03;;;22.60;71.90;;;23.55;50.85;101511.56;3078902;46;21042;-82
2023/10/07 06:47:29;;;;;;;5.73;2.00;;;22.60;71.90;;;23.56;51.31;101507.81;3078482;46;20497;-82
2023/10/07 06:49:58;;;;;;;5.80;2.03;;;22.60;71.90;;;23.56;50.90;101508.63;3079140;46;20435;-82
2023/10/07 06:52:27;;;;;;;5.23;2.10;;;22.60;72.00;;;23.56;50.86;101508.63;3079920;46;20423;-82
2023/10/07 06:54:56;;;;;;;3.10;1.83;;;22.60;72.00;;;23.56;51.02;101508.63;3079628;46;20455;-82
2023/10/07 06:57:37;;;;;;;5.43;2.00;;;22.60;71.90;;;23.57;51.05;101514.81;3079015;46;21030;-82
2023/10/07 07:00:12;;;;;;;6.77;2.70;;;22.60;72.00;;;23.58;51.43;101521.84;3078463;46;21099;-82
2023/10/07 07:02:43;;;;;;;3.13;1.90;;;22.60;72.00;;;23.58;51.33;101521.03;3079669;46;20447;-81
2023/10/07 07:05:13;;;;;;;2.73;1.90;;;22.60;72.00;;;23.58;51.50;101521.84;3078429;46;20427;-82
2023/10/07 07:07:41;;;;;;;4.27;1.97;;;22.60;72.10;;;23.58;50.99;101521.84;3079136;46;20482;-82
2023/10/07 07:10:16;;;;;;;5.20;2.07;;;22.60;72.00;;;23.59;51.00;101518.09;3078862;46;20561;-82
2023/10/07 07:12:44;;;;;;;5.60;1.87;;;22.60;72.00;;;23.58;50.97;101516.47;3079511;46;20438;-81
2023/10/07 07:15:26;;;;;;;3.27;2.00;;;22.60;72.00;;;23.60;51.20;101519.72;3078414;46;21031;-82
2023/10/07 07:23:35;;;;;;;4.73;2.10;;;22.60;71.90;;;23.59;50.87;101523.47;3078650;46;20423;-81
2023/10/07 07:26:11;;;;;;;3.70;2.30;;;22.60;72.00;;;23.56;50.91;101523.94;3078754;46;20520;-82
2023/10/07 07:28:43;;;;;;;5.10;2.10;;;22.60;72.00;;;23.59;51.06;101518.09;3079321;46;20428;-85
2023/10/07 07:31:18;;;;;;;3.17;1.50;;;22.60;71.90;;;23.58;50.89;101511.09;3080110;46;21043;-81
2023/10/07 07:33:50;;;;;;;4.53;2.20;;;22.60;71.90;;;23.58;51.31;101505.72;3079403;46;20496;-81
2023/10/07 07:36:37;;;;;;;2.13;1.60;;;22.60;72.00;;;23.59;50.92;101504.63;3079429;46;20500;-82
2023/10/07 07:39:10;;;;;;;3.53;1.70;;;22.60;72.00;;;23.58;51.12;101504.91;3078176;46;20435;-81
2023/10/07 07:41:55;;;;;;;3.53;2.10;;;22.60;72.00;;;23.59;51.04;101515.41;3079693;46;20427;-82
2023/10/07 07:44:32;;;;;;;4.53;2.07;;;22.60;71.90;;;23.56;50.70;101508.63;3081363;46;21012;-81
2023/10/07 07:47:05;;;;;;;3.77;1.67;;;22.60;71.90;;;23.58;51.32;101511.09;3080538;46;20543;-81
2023/10/07 07:49:36;;;;;;;3.60;1.67;;;22.60;71.90;;;23.57;50.99;101509.44;3081582;46;20442;-81
2023/10/07 07:52:08;;;;;;;2.23;1.57;;;22.60;71.90;;;23.58;50.78;101511.09;3081604;46;20505;-85
2023/10/07 07:54:37;;;;;;;5.37;1.77;;;22.60;72.00;;;23.57;50.99;101509.44;3082433;46;20543;-81
2023/10/07 07:57:07;;;;;;;3.77;2.00;;;22.60;72.00;;;23.58;51.04;101511.09;3082131;46;21012;-81
2023/10/07 07:59:38;;;;;;;2.43;1.83;;;22.60;72.00;;;23.60;51.36;101508.16;3082014;46;20438;-81
2023/10/07 08:02:12;;;;;;;5.67;2.03;;;22.60;72.00;;;23.60;51.00;101513.53;3081239;46;20451;-81
2023/10/07 08:04:49;;;;;;;2.67;2.03;;;22.60;72.10;;;23.61;51.09;101517.81;3080280;46;21184;-80
2023/10/07 08:07:24;;;;;;;3.20;1.87;;;22.60;72.10;;;23.59;51.23;101512.72;3080119;46;20426;-81
2023/10/07 08:09:58;;;;;;;2.40;1.80;;;22.60;72.10;;;23.60;51.27;101511.66;3081001;46;20459;-81
2023/10/07 08:12:31;;;;;;;3.93;2.10;;;22.60;72.10;;;23.60;51.27;101511.66;3081167;46;20435;-81
2023/10/07 08:17:45;;;;;;;2.77;2.10;;;22.60;72.10;;;23.59;51.33;101507.31;3081501;46;20423;-80
2023/10/07 08:20:14;;;;;;;2.73;1.80;;;22.60;72.00;;;23.60;51.28;101511.66;3080239;46;20487;-80
2023/10/07 08:22:46;;;;;;;3.73;2.07;;;22.60;72.00;;;23.59;51.44;101512.72;3081073;46;20435;-80
2023/10/07 08:28:18;;;;;;;4.13;1.80;;;22.60;72.00;;;23.60;51.11;101505.47;3081306;46;20495;-82
2023/10/07 08:30:47;;;;;;;5.63;2.23;;;22.60;72.00;;;23.59;51.29;101504.63;3079998;46;20502;-81
2023/10/07 08:33:24;;;;;;;4.17;1.83;;;22.60;72.00;;;23.59;51.10;101507.31;3081148;46;20500;-81
2023/10/07 08:35:52;;;;;;;2.07;1.80;;;22.60;72.00;;;23.60;51.23;101510.84;3080690;46;20997;-80
2023/10/07 08:38:37;;;;;;;3.10;1.90;;;22.60;72.00;;;23.60;51.30;101514.34;3081602;46;20467;-81
2023/10/07 08:41:07;;;;;;;3.33;1.50;;;22.60;72.00;;;23.58;51.37;101517.25;3080754;46;20439;-80
2023/10/07 08:43:44;;;;;;;2.70;1.90;;;22.60;72.00;;;23.60;51.40;101527.78;3080555;46;20428;-81
2023/10/07 08:46:16;;;;;;;3.77;1.80;;;22.60;72.00;;;23.59;51.36;101523.47;3081083;46;21018;-81
2023/10/07 08:48:50;;;;;;;3.00;1.80;;;22.60;72.10;;;23.60;50.97;101519.72;3080972;46;20506;-81
2023/10/07 08:51:24;;;;;;;2.87;1.97;;;22.60;72.00;;;23.60;51.26;101514.34;3080597;46;21074;-81
2023/10/07 08:53:57;;;;;;;3.13;2.07;;;22.60;72.00;;;23.61;51.33;101524.03;3079958;46;21091;-80
2023/10/07 08:56:28;;;;;;;1.90;1.70;;;22.60;72.00;;;23.60;51.08;101517.03;3080957;46;20458;-81
2023/10/07 08:58:57;;;;;;;2.50;1.63;;;22.60;72.10;;;23.61;51.12;101525.91;3080146;46;21141;-80
2023/10/07 09:01:26;;;;;;;3.17;2.07;;;22.60;72.00;;;23.61;51.22;101525.91;3079834;46;21391;-81
2023/10/07 09:04:00;;;;;;;2.27;1.80;;;22.60;72.00;;;23.60;51.09;101514.34;3080842;46;20444;-80
2023/10/07 09:06:33;;;;;;;3.13;1.90;;;22.60;72.10;;;23.61;51.02;101515.13;3080128;46;20992;-81
2023/10/07 09:09:07;;;;;;;2.17;1.70;;;22.60;72.00;;;23.61;51.27;101520.53;3080844;46;20435;-81
2023/10/07 09:11:36;;;;;;;2.87;2.10;;;22.60;72.00;;;23.60;51.30;101519.72;3079879;46;20427;-80
2023/10/07 09:14:17;;;;;;;2.17;1.87;;;22.60;72.00;;;23.60;51.40;101530.47;3079541;46;20439;-81
2023/10/07 09:16:46;;;;;;;2.57;1.80;;;22.60;72.00;;;23.61;51.20;101520.53;3080173;46;20424;-81
2023/10/07 09:19:19;;;;;;;2.93;2.10;;;22.60;72.00;;;23.60;50.99;101519.72;3080185;46;20455;-81
2023/10/07 09:21:56;;;;;;;4.27;1.90;;;22.60;72.00;;;23.61;50.64;101525.91;3080333;46;20477;-80
2023/10/07 09:24:25;;;;;;;2.60;1.70;;;22.60;72.00;;;23.60;51.00;101514.34;3080590;46;20427;-80
2023/10/07 09:26:57;;;;;;;3.17;2.03;;;22.60;72.00;;;23.60;51.30;101524.28;3080574;46;20423;-81
2023/10/07 09:29:27;;;;;;;3.60;2.20;;;22.60;72.00;;;23.60;51.33;101525.09;3080296;46;20435;-81
2023/10/07 09:32:16;;;;;;;3.00;2.00;;;22.60;72.00;;;23.61;51.26;101526.72;3080726;46;20435;-80
2023/10/07 09:34:45;;;;;;;1.87;1.40;;;22.60;72.00;;;23.59;51.22;101528.84;3079849;46;20571;-81
2023/10/07 09:37:21;;;;;;;2.27;1.80;;;22.60;71.90;;;23.61;51.30;101524.03;3080583;46;20551;-81
2023/10/07 09:42:38;;;;;;;2.97;2.03;;;22.60;71.90;;;23.61;51.00;101544.72;3080441;46;20435;-81
2023/10/07 09:47:38;;;;;;;1.83;1.57;;;22.60;71.90;;;23.60;51.25;101530.47;3080830;46;20427;-80
2023/10/07 09:50:12;;;;;;;1.80;1.63;;;22.60;71.90;;;23.61;51.02;101526.72;3080244;46;20435;-81
2023/10/07 09:52:42;;;;;;;2.63;1.67;;;22.60;71.90;;;23.62;51.05;101538.28;3079479;46;20569;-81
2023/10/07 09:55:40;;;;;;;2.23;1.80;;;22.60;71.90;;;23.58;51.12;101533.38;3079384;46;20506;-81
2023/10/07 09:59:02;;;;;;;2.23;1.80;;;22.60;71.90;;;23.57;50.95;101536.34;3079467;46;20542;-81
2023/10/07 10:01:54;;;;;;;2.47;1.83;;;22.60;71.90;;;23.59;51.25;101539.59;3079137;46;21008;-81
2023/10/07 10:04:58;;;;;;;2.40;1.63;;;22.60;71.80;;;23.58;51.05;101532.59;3078359;46;21028;-81
2023/10/07 10:08:13;;;;;;;1.57;1.30;;;22.70;71.90;;;23.57;51.15;101536.34;3079161;46;20427;-81
2023/10/07 10:10:45;;;;;;;2.87;1.70;;;22.70;71.90;;;23.62;51.26;101531.06;3079660;46;20528;-80
2023/10/07 10:16:14;;;;;;;2.60;2.20;;;22.70;71.80;;;23.64;50.96;101533.50;3079479;46;20451;-81
2023/10/07 10:19:12;;;;;;;2.00;1.80;;;22.70;71.80;;;23.66;50.78;101526.00;3079781;46;20557;-80
2023/10/07 10:21:40;;;;;;;1.77;1.50;;;22.70;71.80;;;23.67;50.95;101516.88;3080256;46;20428;-80
2023/10/07 10:24:16;;;;;;;2.17;1.97;;;22.70;71.70;;;23.68;50.69;101522.00;3080397;46;21035;-80
2023/10/07 10:26:44;;;;;;;1.93;1.73;;;22.70;71.80;;;23.72;50.86;101530.41;3079126;46;20455;-81
2023/10/07 10:29:25;;;;;;;2.53;1.90;;;22.70;71.70;;;23.72;51.36;101539.31;3079841;46;20439;-81
2023/10/07 10:31:58;;;;;;;2.17;1.70;;;22.70;71.80;;;23.73;50.79;101545.47;3079803;46;20568;-81
2023/10/07 10:34:27;;;;;;;4.93;1.97;;;22.70;71.70;;;23.72;50.94;101550.06;3079569;46;20537;-82
2023/10/07 10:36:59;;;;;;;2.50;1.60;;;22.70;71.60;;;23.73;51.25;101546.31;3079903;46;20459;-81
2023/10/07 10:39:33;;;;;;;4.47;2.00;;;22.70;71.60;;;23.73;50.69;101559.75;3078663;46;21024;-81
2023/10/07 10:42:09;;;;;;;1.87;1.63;;;22.70;71.60;;;23.73;50.77;101557.06;3079177;46;20541;-82
2023/10/07 10:44:39;;;;;;;3.30;1.80;;;22.70;71.50;;;23.71;51.05;101564.56;3079725;46;20992;-81
2023/10/07 10:47:08;;;;;;;2.07;1.87;;;22.70;71.50;;;23.72;50.94;101563.50;3079031;46;20484;-81
2023/10/07 10:49:43;;;;;;;2.87;2.00;;;22.70;71.50;;;23.74;50.59;101569.47;3079378;46;20443;-81
2023/10/07 10:52:13;;;;;;;2.33;1.77;;;22.70;71.60;;;23.73;51.09;101575.06;3079541;46;20499;-81
2023/10/07 10:54:42;;;;;;;1.87;1.73;;;22.70;71.60;;;23.73;50.75;101573.19;3078569;46;20550;-81
2023/10/07 10:57:14;;;;;;;2.67;2.03;;;22.70;71.50;;;23.74;51.06;101574.00;3078696;46;20460;-81
2023/10/07 10:59:43;;;;;;;3.07;2.10;;;22.70;71.50;;;23.72;50.92;101582.34;3078624;46;20577;-81
2023/10/07 11:02:20;;;;;;;1.93;1.73;;;22.70;71.50;;;23.71;50.83;101575.31;3078464;46;20447;-81
2023/10/07 11:04:54;;;;;;;2.70;1.93;;;22.70;71.50;;;23.71;50.86;101572.63;3078578;46;20545;-81
2023/10/07 11:07:24;;;;;;;2.00;1.80;;;22.70;71.50;;;23.71;51.02;101583.38;3078459;46;20427;-81
2023/10/07 11:09:53;;;;;;;2.07;1.33;;;22.70;71.50;;;23.71;50.58;101575.31;3078178;46;20510;-81
2023/10/07 11:12:27;;;;;;;1.67;1.53;;;22.70;71.50;;;23.70;50.98;101579.03;3078291;46;20504;-81
2023/10/07 11:15:12;;;;;;;1.93;1.33;;;22.70;71.50;;;23.66;50.85;101572.53;3078270;46;20431;-81
2023/10/07 11:17:52;;;;;;;1.77;1.63;;;22.70;71.50;;;23.69;50.96;101580.13;3081143;46;21012;-81
2023/10/07 11:20:24;;;;;;;3.60;1.70;;;22.70;71.40;;;23.67;50.91;101582.22;3080478;46;20439;-81
2023/10/07 11:22:53;;;;;;;2.07;1.80;;;22.70;71.50;;;23.67;50.72;101579.53;3081029;46;20431;-81
2023/10/07 11:25:27;;;;;;;1.83;1.67;;;22.70;71.50;;;23.66;51.09;101577.91;3081631;46;21070;-81
2023/10/07 11:27:55;;;;;;;2.00;1.80;;;22.70;71.50;;;23.68;51.24;101580.38;3081971;46;20548;-81
2023/10/07 11:30:24;;;;;;;2.10;1.80;;;22.70;71.50;;;23.68;51.11;101575.78;3081030;46;20438;-81